<?xml version="1.0" encoding="UTF-8" standalone="no" ?>
<gpx xmlns="http://www.topografix.com/GPX/1/1" xmlns:xsi="http://www.w3.org/2001/XMLSchema-instance" xsi:schemaLocation="http://www.topografix.com/GPX/1/1 http://www.topografix.com/GPX/1/1/gpx.xsd" version="1.1" creator="VisuGPX - https://www.visugpx.com">
  <metadata>
    <name>SJDC 9</name>
  </metadata>
  <trk>
    <name><![CDATA[1 - SJDC_09-24202454]]></name>
    <extensions>
      <line xmlns="http://www.topografix.com/GPX/gpx_style/0/2">
        <color>0000FF</color>
        <width>4</width>
      </line>
    </extensions>
    <trkseg>
      <trkpt lat="44.55323" lon="2.67401">
        <ele>321</ele>
        <time>2026-08-13T19:49:08Z</time>
      </trkpt>
      <trkpt lat="44.55327" lon="2.67382">
        <ele>320</ele>
        <time>2026-08-13T19:49:27Z</time>
      </trkpt>
      <trkpt lat="44.55346" lon="2.67219">
        <ele>318</ele>
        <time>2026-08-13T19:52:04Z</time>
      </trkpt>
      <trkpt lat="44.55348" lon="2.67186">
        <ele>318</ele>
        <time>2026-08-13T19:52:35Z</time>
      </trkpt>
      <trkpt lat="44.55333" lon="2.67186">
        <ele>317</ele>
        <time>2026-08-13T19:52:55Z</time>
      </trkpt>
      <trkpt lat="44.55251" lon="2.67206">
        <ele>315</ele>
        <time>2026-08-13T19:54:46Z</time>
      </trkpt>
      <trkpt lat="44.55245" lon="2.67211">
        <ele>316</ele>
        <time>2026-08-13T19:54:56Z</time>
      </trkpt>
      <trkpt lat="44.5524" lon="2.67209">
        <ele>317</ele>
        <time>2026-08-13T19:55:03Z</time>
      </trkpt>
      <trkpt lat="44.5522" lon="2.6721">
        <ele>320</ele>
        <time>2026-08-13T19:55:29Z</time>
      </trkpt>
      <trkpt lat="44.55203" lon="2.6717">
        <ele>318</ele>
        <time>2026-08-13T19:56:14Z</time>
      </trkpt>
      <trkpt lat="44.55196" lon="2.6716">
        <ele>318</ele>
        <time>2026-08-13T19:56:27Z</time>
      </trkpt>
      <trkpt lat="44.55179" lon="2.67147">
        <ele>319</ele>
        <time>2026-08-13T19:56:53Z</time>
      </trkpt>
      <trkpt lat="44.55146" lon="2.6713">
        <ele>320</ele>
        <time>2026-08-13T19:57:40Z</time>
      </trkpt>
      <trkpt lat="44.55123" lon="2.67127">
        <ele>321</ele>
        <time>2026-08-13T19:58:11Z</time>
      </trkpt>
      <trkpt lat="44.55099" lon="2.67133">
        <ele>323</ele>
        <time>2026-08-13T19:58:43Z</time>
      </trkpt>
      <trkpt lat="44.55077" lon="2.67143">
        <ele>326</ele>
        <time>2026-08-13T19:59:14Z</time>
      </trkpt>
      <trkpt lat="44.55059" lon="2.67146">
        <ele>329</ele>
        <time>2026-08-13T19:59:38Z</time>
      </trkpt>
      <trkpt lat="44.55045" lon="2.67142">
        <ele>330</ele>
        <time>2026-08-13T19:59:57Z</time>
      </trkpt>
      <trkpt lat="44.55014" lon="2.67125">
        <ele>330</ele>
        <time>2026-08-13T20:00:42Z</time>
      </trkpt>
      <trkpt lat="44.54995" lon="2.67121">
        <ele>331</ele>
        <time>2026-08-13T20:01:07Z</time>
      </trkpt>
      <trkpt lat="44.5498" lon="2.67121">
        <ele>331</ele>
        <time>2026-08-13T20:01:27Z</time>
      </trkpt>
      <trkpt lat="44.54967" lon="2.67128">
        <ele>332</ele>
        <time>2026-08-13T20:01:46Z</time>
      </trkpt>
      <trkpt lat="44.54947" lon="2.67145">
        <ele>335</ele>
        <time>2026-08-13T20:02:17Z</time>
      </trkpt>
      <trkpt lat="44.54905" lon="2.67174">
        <ele>338</ele>
        <time>2026-08-13T20:03:20Z</time>
      </trkpt>
      <trkpt lat="44.54856" lon="2.6719">
        <ele>340</ele>
        <time>2026-08-13T20:04:27Z</time>
      </trkpt>
      <trkpt lat="44.54809" lon="2.67189">
        <ele>341</ele>
        <time>2026-08-13T20:05:29Z</time>
      </trkpt>
      <trkpt lat="44.54801" lon="2.67187">
        <ele>342</ele>
        <time>2026-08-13T20:05:40Z</time>
      </trkpt>
      <trkpt lat="44.54789" lon="2.67179">
        <ele>340</ele>
        <time>2026-08-13T20:05:58Z</time>
      </trkpt>
      <trkpt lat="44.54717" lon="2.67092">
        <ele>347</ele>
        <time>2026-08-13T20:08:05Z</time>
      </trkpt>
      <trkpt lat="44.54705" lon="2.67061">
        <ele>351</ele>
        <time>2026-08-13T20:08:38Z</time>
      </trkpt>
      <trkpt lat="44.54702" lon="2.67044">
        <ele>351</ele>
        <time>2026-08-13T20:08:55Z</time>
      </trkpt>
      <trkpt lat="44.5471" lon="2.66987">
        <ele>345</ele>
        <time>2026-08-13T20:09:50Z</time>
      </trkpt>
      <trkpt lat="44.54706" lon="2.66914">
        <ele>346</ele>
        <time>2026-08-13T20:11:00Z</time>
      </trkpt>
      <trkpt lat="44.54701" lon="2.66851">
        <ele>342</ele>
        <time>2026-08-13T20:12:00Z</time>
      </trkpt>
      <trkpt lat="44.54684" lon="2.66775">
        <ele>340</ele>
        <time>2026-08-13T20:13:16Z</time>
      </trkpt>
      <trkpt lat="44.54686" lon="2.66734">
        <ele>337</ele>
        <time>2026-08-13T20:13:55Z</time>
      </trkpt>
      <trkpt lat="44.54715" lon="2.6665">
        <ele>335</ele>
        <time>2026-08-13T20:15:24Z</time>
      </trkpt>
      <trkpt lat="44.54727" lon="2.6663">
        <ele>337</ele>
        <time>2026-08-13T20:15:49Z</time>
      </trkpt>
      <trkpt lat="44.54742" lon="2.66611">
        <ele>337</ele>
        <time>2026-08-13T20:16:16Z</time>
      </trkpt>
      <trkpt lat="44.54761" lon="2.66599">
        <ele>336</ele>
        <time>2026-08-13T20:16:43Z</time>
      </trkpt>
      <trkpt lat="44.5478" lon="2.66595">
        <ele>335</ele>
        <time>2026-08-13T20:17:09Z</time>
      </trkpt>
      <trkpt lat="44.54835" lon="2.66599">
        <ele>329</ele>
        <time>2026-08-13T20:18:23Z</time>
      </trkpt>
      <trkpt lat="44.54902" lon="2.66614">
        <ele>328</ele>
        <time>2026-08-13T20:19:53Z</time>
      </trkpt>
      <trkpt lat="44.54915" lon="2.66614">
        <ele>328</ele>
        <time>2026-08-13T20:20:10Z</time>
      </trkpt>
      <trkpt lat="44.54955" lon="2.66602">
        <ele>328</ele>
        <time>2026-08-13T20:21:05Z</time>
      </trkpt>
      <trkpt lat="44.54981" lon="2.66589">
        <ele>327</ele>
        <time>2026-08-13T20:21:42Z</time>
      </trkpt>
      <trkpt lat="44.55009" lon="2.6656">
        <ele>331</ele>
        <time>2026-08-13T20:22:28Z</time>
      </trkpt>
      <trkpt lat="44.55037" lon="2.66538">
        <ele>332</ele>
        <time>2026-08-13T20:23:11Z</time>
      </trkpt>
      <trkpt lat="44.55101" lon="2.66512">
        <ele>326</ele>
        <time>2026-08-13T20:24:40Z</time>
      </trkpt>
      <trkpt lat="44.5514" lon="2.66504">
        <ele>321</ele>
        <time>2026-08-13T20:25:33Z</time>
      </trkpt>
      <trkpt lat="44.55154" lon="2.66499">
        <ele>319</ele>
        <time>2026-08-13T20:25:52Z</time>
      </trkpt>
      <trkpt lat="44.55167" lon="2.66489">
        <ele>320</ele>
        <time>2026-08-13T20:26:12Z</time>
      </trkpt>
      <trkpt lat="44.55198" lon="2.6645">
        <ele>326</ele>
        <time>2026-08-13T20:27:07Z</time>
      </trkpt>
      <trkpt lat="44.55222" lon="2.66428">
        <ele>325</ele>
        <time>2026-08-13T20:27:46Z</time>
      </trkpt>
      <trkpt lat="44.55319" lon="2.66354">
        <ele>325</ele>
        <time>2026-08-13T20:30:13Z</time>
      </trkpt>
      <trkpt lat="44.55362" lon="2.66311">
        <ele>326</ele>
        <time>2026-08-13T20:31:23Z</time>
      </trkpt>
      <trkpt lat="44.55422" lon="2.6626">
        <ele>325</ele>
        <time>2026-08-13T20:32:57Z</time>
      </trkpt>
      <trkpt lat="44.55434" lon="2.66254">
        <ele>325</ele>
        <time>2026-08-13T20:33:14Z</time>
      </trkpt>
      <trkpt lat="44.55468" lon="2.66248">
        <ele>327</ele>
        <time>2026-08-13T20:34:00Z</time>
      </trkpt>
      <trkpt lat="44.55485" lon="2.66239">
        <ele>329</ele>
        <time>2026-08-13T20:34:24Z</time>
      </trkpt>
      <trkpt lat="44.55524" lon="2.662">
        <ele>337</ele>
        <time>2026-08-13T20:35:28Z</time>
      </trkpt>
      <trkpt lat="44.55566" lon="2.66175">
        <ele>335</ele>
        <time>2026-08-13T20:36:29Z</time>
      </trkpt>
      <trkpt lat="44.55609" lon="2.66155">
        <ele>334</ele>
        <time>2026-08-13T20:37:29Z</time>
      </trkpt>
      <trkpt lat="44.5567" lon="2.66141">
        <ele>330</ele>
        <time>2026-08-13T20:38:52Z</time>
      </trkpt>
      <trkpt lat="44.55913" lon="2.66047">
        <ele>325</ele>
        <time>2026-08-13T20:44:28Z</time>
      </trkpt>
      <trkpt lat="44.55973" lon="2.66015">
        <ele>324</ele>
        <time>2026-08-13T20:45:54Z</time>
      </trkpt>
      <trkpt lat="44.56052" lon="2.65981">
        <ele>323</ele>
        <time>2026-08-13T20:47:44Z</time>
      </trkpt>
      <trkpt lat="44.56123" lon="2.65937">
        <ele>325</ele>
        <time>2026-08-13T20:49:27Z</time>
      </trkpt>
      <trkpt lat="44.56164" lon="2.65921">
        <ele>322</ele>
        <time>2026-08-13T20:50:24Z</time>
      </trkpt>
      <trkpt lat="44.562" lon="2.65915">
        <ele>322</ele>
        <time>2026-08-13T20:51:13Z</time>
      </trkpt>
      <trkpt lat="44.5622" lon="2.65915">
        <ele>322</ele>
        <time>2026-08-13T20:51:39Z</time>
      </trkpt>
      <trkpt lat="44.56295" lon="2.65906">
        <ele>322</ele>
        <time>2026-08-13T20:53:20Z</time>
      </trkpt>
      <trkpt lat="44.56314" lon="2.659">
        <ele>322</ele>
        <time>2026-08-13T20:53:46Z</time>
      </trkpt>
      <trkpt lat="44.56418" lon="2.65881">
        <ele>328</ele>
        <time>2026-08-13T20:56:06Z</time>
      </trkpt>
      <trkpt lat="44.56418" lon="2.6587">
        <ele>327</ele>
        <time>2026-08-13T20:56:16Z</time>
      </trkpt>
      <trkpt lat="44.56413" lon="2.65853">
        <ele>327</ele>
        <time>2026-08-13T20:56:34Z</time>
      </trkpt>
      <trkpt lat="44.564" lon="2.65834">
        <ele>327</ele>
        <time>2026-08-13T20:56:59Z</time>
      </trkpt>
      <trkpt lat="44.56392" lon="2.65817">
        <ele>327</ele>
        <time>2026-08-13T20:57:18Z</time>
      </trkpt>
      <trkpt lat="44.56388" lon="2.65796">
        <ele>328</ele>
        <time>2026-08-13T20:57:39Z</time>
      </trkpt>
      <trkpt lat="44.56375" lon="2.65704">
        <ele>337</ele>
        <time>2026-08-13T20:59:08Z</time>
      </trkpt>
      <trkpt lat="44.56368" lon="2.65678">
        <ele>342</ele>
        <time>2026-08-13T20:59:34Z</time>
      </trkpt>
      <trkpt lat="44.56365" lon="2.65646">
        <ele>346</ele>
        <time>2026-08-13T21:00:05Z</time>
      </trkpt>
      <trkpt lat="44.56369" lon="2.65614">
        <ele>347</ele>
        <time>2026-08-13T21:00:36Z</time>
      </trkpt>
      <trkpt lat="44.5636" lon="2.65556">
        <ele>355</ele>
        <time>2026-08-13T21:01:32Z</time>
      </trkpt>
      <trkpt lat="44.5636" lon="2.65541">
        <ele>356</ele>
        <time>2026-08-13T21:01:47Z</time>
      </trkpt>
      <trkpt lat="44.56368" lon="2.65511">
        <ele>354</ele>
        <time>2026-08-13T21:02:17Z</time>
      </trkpt>
      <trkpt lat="44.56406" lon="2.65465">
        <ele>339</ele>
        <time>2026-08-13T21:03:24Z</time>
      </trkpt>
      <trkpt lat="44.56416" lon="2.65433">
        <ele>336</ele>
        <time>2026-08-13T21:03:57Z</time>
      </trkpt>
      <trkpt lat="44.56419" lon="2.65407">
        <ele>334</ele>
        <time>2026-08-13T21:04:22Z</time>
      </trkpt>
      <trkpt lat="44.5643" lon="2.65375">
        <ele>329</ele>
        <time>2026-08-13T21:04:56Z</time>
      </trkpt>
      <trkpt lat="44.56425" lon="2.65361">
        <ele>328</ele>
        <time>2026-08-13T21:05:11Z</time>
      </trkpt>
      <trkpt lat="44.56404" lon="2.65341">
        <ele>330</ele>
        <time>2026-08-13T21:05:45Z</time>
      </trkpt>
      <trkpt lat="44.56353" lon="2.65302">
        <ele>340</ele>
        <time>2026-08-13T21:07:02Z</time>
      </trkpt>
      <trkpt lat="44.56347" lon="2.65281">
        <ele>341</ele>
        <time>2026-08-13T21:07:24Z</time>
      </trkpt>
      <trkpt lat="44.56352" lon="2.65227">
        <ele>339</ele>
        <time>2026-08-13T21:08:16Z</time>
      </trkpt>
      <trkpt lat="44.56346" lon="2.65153">
        <ele>340</ele>
        <time>2026-08-13T21:09:26Z</time>
      </trkpt>
      <trkpt lat="44.56349" lon="2.6512">
        <ele>340</ele>
        <time>2026-08-13T21:09:58Z</time>
      </trkpt>
      <trkpt lat="44.56359" lon="2.65078">
        <ele>341</ele>
        <time>2026-08-13T21:10:40Z</time>
      </trkpt>
      <trkpt lat="44.56363" lon="2.65042">
        <ele>342</ele>
        <time>2026-08-13T21:11:15Z</time>
      </trkpt>
      <trkpt lat="44.56355" lon="2.65009">
        <ele>341</ele>
        <time>2026-08-13T21:11:48Z</time>
      </trkpt>
      <trkpt lat="44.56335" lon="2.64962">
        <ele>339</ele>
        <time>2026-08-13T21:12:40Z</time>
      </trkpt>
      <trkpt lat="44.56334" lon="2.64955">
        <ele>339</ele>
        <time>2026-08-13T21:12:47Z</time>
      </trkpt>
      <trkpt lat="44.56349" lon="2.64944">
        <ele>343</ele>
        <time>2026-08-13T21:13:09Z</time>
      </trkpt>
      <trkpt lat="44.56357" lon="2.64948">
        <ele>345</ele>
        <time>2026-08-13T21:13:21Z</time>
      </trkpt>
      <trkpt lat="44.56375" lon="2.64976">
        <ele>347</ele>
        <time>2026-08-13T21:13:57Z</time>
      </trkpt>
      <trkpt lat="44.564" lon="2.65047">
        <ele>344</ele>
        <time>2026-08-13T21:15:12Z</time>
      </trkpt>
      <trkpt lat="44.56402" lon="2.65031">
        <ele>345</ele>
        <time>2026-08-13T21:15:27Z</time>
      </trkpt>
      <trkpt lat="44.564" lon="2.65">
        <ele>346</ele>
        <time>2026-08-13T21:15:57Z</time>
      </trkpt>
      <trkpt lat="44.56393" lon="2.64977">
        <ele>350</ele>
        <time>2026-08-13T21:16:21Z</time>
      </trkpt>
      <trkpt lat="44.56396" lon="2.64951">
        <ele>355</ele>
        <time>2026-08-13T21:16:46Z</time>
      </trkpt>
      <trkpt lat="44.56403" lon="2.64947">
        <ele>358</ele>
        <time>2026-08-13T21:16:56Z</time>
      </trkpt>
      <trkpt lat="44.56406" lon="2.64915">
        <ele>365</ele>
        <time>2026-08-13T21:17:27Z</time>
      </trkpt>
      <trkpt lat="44.56397" lon="2.64878">
        <ele>363</ele>
        <time>2026-08-13T21:18:04Z</time>
      </trkpt>
      <trkpt lat="44.56403" lon="2.6481">
        <ele>370</ele>
        <time>2026-08-13T21:19:09Z</time>
      </trkpt>
      <trkpt lat="44.56401" lon="2.64768">
        <ele>374</ele>
        <time>2026-08-13T21:19:49Z</time>
      </trkpt>
      <trkpt lat="44.56392" lon="2.64722">
        <ele>376</ele>
        <time>2026-08-13T21:20:34Z</time>
      </trkpt>
      <trkpt lat="44.56393" lon="2.64643">
        <ele>388</ele>
        <time>2026-08-13T21:21:49Z</time>
      </trkpt>
      <trkpt lat="44.56387" lon="2.64598">
        <ele>389</ele>
        <time>2026-08-13T21:22:33Z</time>
      </trkpt>
      <trkpt lat="44.56371" lon="2.64545">
        <ele>388</ele>
        <time>2026-08-13T21:23:28Z</time>
      </trkpt>
      <trkpt lat="44.5636" lon="2.64525">
        <ele>387</ele>
        <time>2026-08-13T21:23:52Z</time>
      </trkpt>
      <trkpt lat="44.56361" lon="2.64512">
        <ele>390</ele>
        <time>2026-08-13T21:24:04Z</time>
      </trkpt>
      <trkpt lat="44.56368" lon="2.64511">
        <ele>393</ele>
        <time>2026-08-13T21:24:13Z</time>
      </trkpt>
      <trkpt lat="44.56398" lon="2.64556">
        <ele>399</ele>
        <time>2026-08-13T21:25:12Z</time>
      </trkpt>
      <trkpt lat="44.56399" lon="2.64542">
        <ele>401</ele>
        <time>2026-08-13T21:25:25Z</time>
      </trkpt>
      <trkpt lat="44.56381" lon="2.64508">
        <ele>399</ele>
        <time>2026-08-13T21:26:06Z</time>
      </trkpt>
      <trkpt lat="44.56392" lon="2.64492">
        <ele>405</ele>
        <time>2026-08-13T21:26:27Z</time>
      </trkpt>
      <trkpt lat="44.56398" lon="2.64475">
        <ele>410</ele>
        <time>2026-08-13T21:26:45Z</time>
      </trkpt>
      <trkpt lat="44.56402" lon="2.64446">
        <ele>415</ele>
        <time>2026-08-13T21:27:13Z</time>
      </trkpt>
      <trkpt lat="44.56404" lon="2.64365">
        <ele>439</ele>
        <time>2026-08-13T21:28:30Z</time>
      </trkpt>
      <trkpt lat="44.56454" lon="2.64408">
        <ele>442</ele>
        <time>2026-08-13T21:29:48Z</time>
      </trkpt>
      <trkpt lat="44.5648" lon="2.64434">
        <ele>447</ele>
        <time>2026-08-13T21:30:31Z</time>
      </trkpt>
      <trkpt lat="44.56494" lon="2.64457">
        <ele>450</ele>
        <time>2026-08-13T21:31:00Z</time>
      </trkpt>
      <trkpt lat="44.565" lon="2.64448">
        <ele>454</ele>
        <time>2026-08-13T21:31:11Z</time>
      </trkpt>
      <trkpt lat="44.56496" lon="2.64414">
        <ele>456</ele>
        <time>2026-08-13T21:31:44Z</time>
      </trkpt>
      <trkpt lat="44.56489" lon="2.64387">
        <ele>462</ele>
        <time>2026-08-13T21:32:11Z</time>
      </trkpt>
      <trkpt lat="44.56499" lon="2.64399">
        <ele>462</ele>
        <time>2026-08-13T21:32:29Z</time>
      </trkpt>
      <trkpt lat="44.56512" lon="2.64437">
        <ele>455</ele>
        <time>2026-08-13T21:33:09Z</time>
      </trkpt>
      <trkpt lat="44.56523" lon="2.64478">
        <ele>450</ele>
        <time>2026-08-13T21:33:51Z</time>
      </trkpt>
      <trkpt lat="44.5653" lon="2.64518">
        <ele>448</ele>
        <time>2026-08-13T21:34:30Z</time>
      </trkpt>
      <trkpt lat="44.56534" lon="2.64521">
        <ele>448</ele>
        <time>2026-08-13T21:34:36Z</time>
      </trkpt>
      <trkpt lat="44.56538" lon="2.6452">
        <ele>448</ele>
        <time>2026-08-13T21:34:41Z</time>
      </trkpt>
      <trkpt lat="44.56528" lon="2.64441">
        <ele>454</ele>
        <time>2026-08-13T21:35:58Z</time>
      </trkpt>
      <trkpt lat="44.56513" lon="2.64362">
        <ele>475</ele>
        <time>2026-08-13T21:37:15Z</time>
      </trkpt>
      <trkpt lat="44.56503" lon="2.64337">
        <ele>483</ele>
        <time>2026-08-13T21:37:43Z</time>
      </trkpt>
      <trkpt lat="44.56462" lon="2.64298">
        <ele>481</ele>
        <time>2026-08-13T21:38:49Z</time>
      </trkpt>
      <trkpt lat="44.56441" lon="2.64259">
        <ele>486</ele>
        <time>2026-08-13T21:39:35Z</time>
      </trkpt>
      <trkpt lat="44.56426" lon="2.64216">
        <ele>489</ele>
        <time>2026-08-13T21:40:21Z</time>
      </trkpt>
      <trkpt lat="44.56422" lon="2.64176">
        <ele>493</ele>
        <time>2026-08-13T21:40:59Z</time>
      </trkpt>
      <trkpt lat="44.56431" lon="2.64117">
        <ele>496</ele>
        <time>2026-08-13T21:41:56Z</time>
      </trkpt>
      <trkpt lat="44.56443" lon="2.6407">
        <ele>498</ele>
        <time>2026-08-13T21:42:44Z</time>
      </trkpt>
      <trkpt lat="44.56508" lon="2.63953">
        <ele>512</ele>
        <time>2026-08-13T21:45:05Z</time>
      </trkpt>
      <trkpt lat="44.56516" lon="2.63921">
        <ele>513</ele>
        <time>2026-08-13T21:45:37Z</time>
      </trkpt>
      <trkpt lat="44.56523" lon="2.63603">
        <ele>539</ele>
        <time>2026-08-13T21:50:40Z</time>
      </trkpt>
      <trkpt lat="44.56514" lon="2.63564">
        <ele>544</ele>
        <time>2026-08-13T21:51:19Z</time>
      </trkpt>
      <trkpt lat="44.56487" lon="2.63496">
        <ele>555</ele>
        <time>2026-08-13T21:52:33Z</time>
      </trkpt>
      <trkpt lat="44.56475" lon="2.63451">
        <ele>558</ele>
        <time>2026-08-13T21:53:18Z</time>
      </trkpt>
      <trkpt lat="44.56459" lon="2.63421">
        <ele>559</ele>
        <time>2026-08-13T21:53:54Z</time>
      </trkpt>
      <trkpt lat="44.56439" lon="2.63346">
        <ele>564</ele>
        <time>2026-08-13T21:55:10Z</time>
      </trkpt>
      <trkpt lat="44.5643" lon="2.63268">
        <ele>570</ele>
        <time>2026-08-13T21:56:25Z</time>
      </trkpt>
      <trkpt lat="44.56434" lon="2.63235">
        <ele>572</ele>
        <time>2026-08-13T21:56:57Z</time>
      </trkpt>
      <trkpt lat="44.56442" lon="2.63224">
        <ele>572</ele>
        <time>2026-08-13T21:57:12Z</time>
      </trkpt>
      <trkpt lat="44.56451" lon="2.63223">
        <ele>573</ele>
        <time>2026-08-13T21:57:24Z</time>
      </trkpt>
      <trkpt lat="44.56458" lon="2.63228">
        <ele>574</ele>
        <time>2026-08-13T21:57:35Z</time>
      </trkpt>
      <trkpt lat="44.56461" lon="2.63251">
        <ele>576</ele>
        <time>2026-08-13T21:57:57Z</time>
      </trkpt>
      <trkpt lat="44.56464" lon="2.63258">
        <ele>576</ele>
        <time>2026-08-13T21:58:05Z</time>
      </trkpt>
      <trkpt lat="44.56472" lon="2.63259">
        <ele>577</ele>
        <time>2026-08-13T21:58:15Z</time>
      </trkpt>
      <trkpt lat="44.56492" lon="2.63239">
        <ele>579</ele>
        <time>2026-08-13T21:58:48Z</time>
      </trkpt>
      <trkpt lat="44.56542" lon="2.63213">
        <ele>583</ele>
        <time>2026-08-13T21:59:59Z</time>
      </trkpt>
      <trkpt lat="44.56596" lon="2.63178">
        <ele>590</ele>
        <time>2026-08-13T22:01:19Z</time>
      </trkpt>
      <trkpt lat="44.56613" lon="2.63161">
        <ele>592</ele>
        <time>2026-08-13T22:01:46Z</time>
      </trkpt>
      <trkpt lat="44.56643" lon="2.63108">
        <ele>594</ele>
        <time>2026-08-13T22:02:51Z</time>
      </trkpt>
      <trkpt lat="44.56699" lon="2.63018">
        <ele>593</ele>
        <time>2026-08-13T22:04:44Z</time>
      </trkpt>
      <trkpt lat="44.5672" lon="2.62969">
        <ele>595</ele>
        <time>2026-08-13T22:05:39Z</time>
      </trkpt>
      <trkpt lat="44.56733" lon="2.62916">
        <ele>599</ele>
        <time>2026-08-13T22:06:32Z</time>
      </trkpt>
      <trkpt lat="44.56739" lon="2.62841">
        <ele>606</ele>
        <time>2026-08-13T22:07:44Z</time>
      </trkpt>
      <trkpt lat="44.5674" lon="2.62796">
        <ele>609</ele>
        <time>2026-08-13T22:08:27Z</time>
      </trkpt>
      <trkpt lat="44.56749" lon="2.62788">
        <ele>610</ele>
        <time>2026-08-13T22:08:41Z</time>
      </trkpt>
      <trkpt lat="44.56777" lon="2.62787">
        <ele>612</ele>
        <time>2026-08-13T22:09:18Z</time>
      </trkpt>
      <trkpt lat="44.5683" lon="2.62743">
        <ele>618</ele>
        <time>2026-08-13T22:10:40Z</time>
      </trkpt>
      <trkpt lat="44.56855" lon="2.6273">
        <ele>619</ele>
        <time>2026-08-13T22:11:16Z</time>
      </trkpt>
      <trkpt lat="44.56913" lon="2.62721">
        <ele>622</ele>
        <time>2026-08-13T22:12:34Z</time>
      </trkpt>
      <trkpt lat="44.56957" lon="2.62702">
        <ele>624</ele>
        <time>2026-08-13T22:13:35Z</time>
      </trkpt>
      <trkpt lat="44.56998" lon="2.62664">
        <ele>628</ele>
        <time>2026-08-13T22:14:41Z</time>
      </trkpt>
      <trkpt lat="44.57034" lon="2.62621">
        <ele>633</ele>
        <time>2026-08-13T22:15:44Z</time>
      </trkpt>
      <trkpt lat="44.57086" lon="2.62586">
        <ele>640</ele>
        <time>2026-08-13T22:17:01Z</time>
      </trkpt>
      <trkpt lat="44.57199" lon="2.62532">
        <ele>644</ele>
        <time>2026-08-13T22:19:40Z</time>
      </trkpt>
      <trkpt lat="44.57289" lon="2.62493">
        <ele>652</ele>
        <time>2026-08-13T22:21:46Z</time>
      </trkpt>
      <trkpt lat="44.57305" lon="2.62478">
        <ele>653</ele>
        <time>2026-08-13T22:22:12Z</time>
      </trkpt>
      <trkpt lat="44.57338" lon="2.62406">
        <ele>656</ele>
        <time>2026-08-13T22:23:33Z</time>
      </trkpt>
      <trkpt lat="44.57353" lon="2.62384">
        <ele>656</ele>
        <time>2026-08-13T22:24:02Z</time>
      </trkpt>
      <trkpt lat="44.57405" lon="2.62349">
        <ele>656</ele>
        <time>2026-08-13T22:25:19Z</time>
      </trkpt>
      <trkpt lat="44.57443" lon="2.62317">
        <ele>656</ele>
        <time>2026-08-13T22:26:18Z</time>
      </trkpt>
      <trkpt lat="44.57492" lon="2.62263">
        <ele>657</ele>
        <time>2026-08-13T22:27:41Z</time>
      </trkpt>
      <trkpt lat="44.57521" lon="2.6221">
        <ele>657</ele>
        <time>2026-08-13T22:28:45Z</time>
      </trkpt>
      <trkpt lat="44.57546" lon="2.62187">
        <ele>657</ele>
        <time>2026-08-13T22:29:25Z</time>
      </trkpt>
      <trkpt lat="44.57682" lon="2.62143">
        <ele>651</ele>
        <time>2026-08-13T22:32:31Z</time>
      </trkpt>
      <trkpt lat="44.577" lon="2.62121">
        <ele>649</ele>
        <time>2026-08-13T22:33:03Z</time>
      </trkpt>
      <trkpt lat="44.57713" lon="2.62075">
        <ele>648</ele>
        <time>2026-08-13T22:33:50Z</time>
      </trkpt>
      <trkpt lat="44.5774" lon="2.62048">
        <ele>646</ele>
        <time>2026-08-13T22:34:34Z</time>
      </trkpt>
      <trkpt lat="44.57789" lon="2.62013">
        <ele>638</ele>
        <time>2026-08-13T22:35:47Z</time>
      </trkpt>
      <trkpt lat="44.57866" lon="2.62019">
        <ele>626</ele>
        <time>2026-08-13T22:37:30Z</time>
      </trkpt>
      <trkpt lat="44.57929" lon="2.62048">
        <ele>622</ele>
        <time>2026-08-13T22:38:59Z</time>
      </trkpt>
      <trkpt lat="44.57965" lon="2.62056">
        <ele>618</ele>
        <time>2026-08-13T22:39:47Z</time>
      </trkpt>
      <trkpt lat="44.5799" lon="2.6204">
        <ele>614</ele>
        <time>2026-08-13T22:40:24Z</time>
      </trkpt>
      <trkpt lat="44.5801" lon="2.62013">
        <ele>609</ele>
        <time>2026-08-13T22:41:01Z</time>
      </trkpt>
      <trkpt lat="44.58041" lon="2.61944">
        <ele>602</ele>
        <time>2026-08-13T22:42:18Z</time>
      </trkpt>
      <trkpt lat="44.5806" lon="2.61913">
        <ele>600</ele>
        <time>2026-08-13T22:42:57Z</time>
      </trkpt>
      <trkpt lat="44.5809" lon="2.61895">
        <ele>599</ele>
        <time>2026-08-13T22:43:41Z</time>
      </trkpt>
      <trkpt lat="44.58124" lon="2.61883">
        <ele>600</ele>
        <time>2026-08-13T22:44:28Z</time>
      </trkpt>
      <trkpt lat="44.58151" lon="2.61862">
        <ele>601</ele>
        <time>2026-08-13T22:45:09Z</time>
      </trkpt>
      <trkpt lat="44.5826" lon="2.61833">
        <ele>598</ele>
        <time>2026-08-13T22:47:37Z</time>
      </trkpt>
      <trkpt lat="44.58451" lon="2.6171">
        <ele>593</ele>
        <time>2026-08-13T22:52:17Z</time>
      </trkpt>
      <trkpt lat="44.5852" lon="2.61636">
        <ele>590</ele>
        <time>2026-08-13T22:54:13Z</time>
      </trkpt>
      <trkpt lat="44.58576" lon="2.61611">
        <ele>583</ele>
        <time>2026-08-13T22:55:32Z</time>
      </trkpt>
      <trkpt lat="44.58589" lon="2.61592">
        <ele>583</ele>
        <time>2026-08-13T22:55:57Z</time>
      </trkpt>
      <trkpt lat="44.58601" lon="2.61553">
        <ele>582</ele>
        <time>2026-08-13T22:56:37Z</time>
      </trkpt>
      <trkpt lat="44.5861" lon="2.61533">
        <ele>582</ele>
        <time>2026-08-13T22:57:00Z</time>
      </trkpt>
      <trkpt lat="44.58631" lon="2.6151">
        <ele>581</ele>
        <time>2026-08-13T22:57:35Z</time>
      </trkpt>
      <trkpt lat="44.58668" lon="2.61457">
        <ele>576</ele>
        <time>2026-08-13T22:58:46Z</time>
      </trkpt>
      <trkpt lat="44.58674" lon="2.61438">
        <ele>573</ele>
        <time>2026-08-13T22:59:05Z</time>
      </trkpt>
      <trkpt lat="44.58672" lon="2.61427">
        <ele>573</ele>
        <time>2026-08-13T22:59:16Z</time>
      </trkpt>
      <trkpt lat="44.58654" lon="2.61402">
        <ele>574</ele>
        <time>2026-08-13T22:59:50Z</time>
      </trkpt>
      <trkpt lat="44.58613" lon="2.61354">
        <ele>576</ele>
        <time>2026-08-13T23:01:01Z</time>
      </trkpt>
      <trkpt lat="44.58612" lon="2.61337">
        <ele>574</ele>
        <time>2026-08-13T23:01:17Z</time>
      </trkpt>
      <trkpt lat="44.58653" lon="2.61273">
        <ele>567</ele>
        <time>2026-08-13T23:02:39Z</time>
      </trkpt>
      <trkpt lat="44.58668" lon="2.61227">
        <ele>563</ele>
        <time>2026-08-13T23:03:27Z</time>
      </trkpt>
      <trkpt lat="44.5867" lon="2.612">
        <ele>563</ele>
        <time>2026-08-13T23:03:53Z</time>
      </trkpt>
      <trkpt lat="44.5866" lon="2.61165">
        <ele>567</ele>
        <time>2026-08-13T23:04:29Z</time>
      </trkpt>
      <trkpt lat="44.58634" lon="2.6114">
        <ele>573</ele>
        <time>2026-08-13T23:05:11Z</time>
      </trkpt>
      <trkpt lat="44.58632" lon="2.61122">
        <ele>575</ele>
        <time>2026-08-13T23:05:28Z</time>
      </trkpt>
      <trkpt lat="44.58638" lon="2.61107">
        <ele>574</ele>
        <time>2026-08-13T23:05:45Z</time>
      </trkpt>
      <trkpt lat="44.58657" lon="2.61096">
        <ele>573</ele>
        <time>2026-08-13T23:06:12Z</time>
      </trkpt>
      <trkpt lat="44.58715" lon="2.61088">
        <ele>565</ele>
        <time>2026-08-13T23:07:30Z</time>
      </trkpt>
      <trkpt lat="44.58746" lon="2.61104">
        <ele>558</ele>
        <time>2026-08-13T23:08:14Z</time>
      </trkpt>
      <trkpt lat="44.58812" lon="2.61093">
        <ele>552</ele>
        <time>2026-08-13T23:09:43Z</time>
      </trkpt>
      <trkpt lat="44.58815" lon="2.61083">
        <ele>554</ele>
        <time>2026-08-13T23:09:53Z</time>
      </trkpt>
      <trkpt lat="44.58832" lon="2.61076">
        <ele>553</ele>
        <time>2026-08-13T23:10:17Z</time>
      </trkpt>
      <trkpt lat="44.58842" lon="2.61059">
        <ele>556</ele>
        <time>2026-08-13T23:10:37Z</time>
      </trkpt>
      <trkpt lat="44.58849" lon="2.61033">
        <ele>559</ele>
        <time>2026-08-13T23:11:04Z</time>
      </trkpt>
      <trkpt lat="44.5885" lon="2.60982">
        <ele>565</ele>
        <time>2026-08-13T23:11:52Z</time>
      </trkpt>
      <trkpt lat="44.58845" lon="2.60956">
        <ele>567</ele>
        <time>2026-08-13T23:12:18Z</time>
      </trkpt>
      <trkpt lat="44.58833" lon="2.60925">
        <ele>570</ele>
        <time>2026-08-13T23:12:52Z</time>
      </trkpt>
      <trkpt lat="44.58808" lon="2.60879">
        <ele>577</ele>
        <time>2026-08-13T23:13:47Z</time>
      </trkpt>
      <trkpt lat="44.58804" lon="2.60861">
        <ele>579</ele>
        <time>2026-08-13T23:14:04Z</time>
      </trkpt>
      <trkpt lat="44.58803" lon="2.60831">
        <ele>581</ele>
        <time>2026-08-13T23:14:33Z</time>
      </trkpt>
      <trkpt lat="44.58812" lon="2.60781">
        <ele>583</ele>
        <time>2026-08-13T23:15:22Z</time>
      </trkpt>
      <trkpt lat="44.58825" lon="2.60759">
        <ele>583</ele>
        <time>2026-08-13T23:15:49Z</time>
      </trkpt>
      <trkpt lat="44.58847" lon="2.60679">
        <ele>586</ele>
        <time>2026-08-13T23:17:11Z</time>
      </trkpt>
      <trkpt lat="44.58849" lon="2.60645">
        <ele>588</ele>
        <time>2026-08-13T23:17:43Z</time>
      </trkpt>
      <trkpt lat="44.58847" lon="2.6059">
        <ele>590</ele>
        <time>2026-08-13T23:18:35Z</time>
      </trkpt>
      <trkpt lat="44.58849" lon="2.60494">
        <ele>591</ele>
        <time>2026-08-13T23:20:07Z</time>
      </trkpt>
      <trkpt lat="44.58852" lon="2.60475">
        <ele>592</ele>
        <time>2026-08-13T23:20:25Z</time>
      </trkpt>
      <trkpt lat="44.5888" lon="2.60411">
        <ele>588</ele>
        <time>2026-08-13T23:21:37Z</time>
      </trkpt>
      <trkpt lat="44.58893" lon="2.60375">
        <ele>586</ele>
        <time>2026-08-13T23:22:15Z</time>
      </trkpt>
      <trkpt lat="44.58897" lon="2.60349">
        <ele>585</ele>
        <time>2026-08-13T23:22:40Z</time>
      </trkpt>
      <trkpt lat="44.58895" lon="2.60295">
        <ele>589</ele>
        <time>2026-08-13T23:23:32Z</time>
      </trkpt>
      <trkpt lat="44.58916" lon="2.60229">
        <ele>588</ele>
        <time>2026-08-13T23:24:40Z</time>
      </trkpt>
      <trkpt lat="44.58925" lon="2.60211">
        <ele>589</ele>
        <time>2026-08-13T23:25:01Z</time>
      </trkpt>
      <trkpt lat="44.58936" lon="2.60201">
        <ele>589</ele>
        <time>2026-08-13T23:25:19Z</time>
      </trkpt>
      <trkpt lat="44.5896" lon="2.60206">
        <ele>586</ele>
        <time>2026-08-13T23:25:51Z</time>
      </trkpt>
      <trkpt lat="44.58963" lon="2.60193">
        <ele>587</ele>
        <time>2026-08-13T23:26:04Z</time>
      </trkpt>
      <trkpt lat="44.58959" lon="2.60178">
        <ele>589</ele>
        <time>2026-08-13T23:26:19Z</time>
      </trkpt>
      <trkpt lat="44.58892" lon="2.60105">
        <ele>607</ele>
        <time>2026-08-13T23:28:12Z</time>
      </trkpt>
      <trkpt lat="44.58884" lon="2.60088">
        <ele>610</ele>
        <time>2026-08-13T23:28:32Z</time>
      </trkpt>
      <trkpt lat="44.58884" lon="2.60074">
        <ele>611</ele>
        <time>2026-08-13T23:28:45Z</time>
      </trkpt>
      <trkpt lat="44.58904" lon="2.6008">
        <ele>609</ele>
        <time>2026-08-13T23:29:12Z</time>
      </trkpt>
      <trkpt lat="44.58918" lon="2.60081">
        <ele>607</ele>
        <time>2026-08-13T23:29:31Z</time>
      </trkpt>
      <trkpt lat="44.5893" lon="2.60075">
        <ele>608</ele>
        <time>2026-08-13T23:29:48Z</time>
      </trkpt>
      <trkpt lat="44.58937" lon="2.60067">
        <ele>608</ele>
        <time>2026-08-13T23:30:00Z</time>
      </trkpt>
      <trkpt lat="44.5894" lon="2.60007">
        <ele>617</ele>
        <time>2026-08-13T23:30:57Z</time>
      </trkpt>
      <trkpt lat="44.58944" lon="2.6">
        <ele>619</ele>
        <time>2026-08-13T23:31:06Z</time>
      </trkpt>
      <trkpt lat="44.58954" lon="2.60005">
        <ele>618</ele>
        <time>2026-08-13T23:31:20Z</time>
      </trkpt>
      <trkpt lat="44.58994" lon="2.60084">
        <ele>603</ele>
        <time>2026-08-13T23:32:52Z</time>
      </trkpt>
      <trkpt lat="44.59011" lon="2.60098">
        <ele>599</ele>
        <time>2026-08-13T23:33:18Z</time>
      </trkpt>
      <trkpt lat="44.59025" lon="2.60097">
        <ele>599</ele>
        <time>2026-08-13T23:33:37Z</time>
      </trkpt>
      <trkpt lat="44.5904" lon="2.60085">
        <ele>600</ele>
        <time>2026-08-13T23:34:00Z</time>
      </trkpt>
      <trkpt lat="44.59079" lon="2.60036">
        <ele>612</ele>
        <time>2026-08-13T23:35:10Z</time>
      </trkpt>
      <trkpt lat="44.59098" lon="2.60023">
        <ele>615</ele>
        <time>2026-08-13T23:35:38Z</time>
      </trkpt>
      <trkpt lat="44.5914" lon="2.60005">
        <ele>617</ele>
        <time>2026-08-13T23:36:37Z</time>
      </trkpt>
      <trkpt lat="44.59183" lon="2.59978">
        <ele>621</ele>
        <time>2026-08-13T23:37:40Z</time>
      </trkpt>
      <trkpt lat="44.59223" lon="2.59941">
        <ele>625</ele>
        <time>2026-08-13T23:38:44Z</time>
      </trkpt>
      <trkpt lat="44.59259" lon="2.59881">
        <ele>633</ele>
        <time>2026-08-13T23:39:58Z</time>
      </trkpt>
      <trkpt lat="44.59273" lon="2.59834">
        <ele>643</ele>
        <time>2026-08-13T23:40:47Z</time>
      </trkpt>
      <trkpt lat="44.59317" lon="2.59737">
        <ele>649</ele>
        <time>2026-08-13T23:42:36Z</time>
      </trkpt>
      <trkpt lat="44.59352" lon="2.5975">
        <ele>642</ele>
        <time>2026-08-13T23:43:24Z</time>
      </trkpt>
      <trkpt lat="44.59422" lon="2.5979">
        <ele>632</ele>
        <time>2026-08-13T23:45:05Z</time>
      </trkpt>
      <trkpt lat="44.59435" lon="2.59792">
        <ele>632</ele>
        <time>2026-08-13T23:45:22Z</time>
      </trkpt>
      <trkpt lat="44.59446" lon="2.59782">
        <ele>633</ele>
        <time>2026-08-13T23:45:40Z</time>
      </trkpt>
      <trkpt lat="44.59467" lon="2.5975">
        <ele>635</ele>
        <time>2026-08-13T23:46:21Z</time>
      </trkpt>
      <trkpt lat="44.5947" lon="2.59735">
        <ele>636</ele>
        <time>2026-08-13T23:46:36Z</time>
      </trkpt>
      <trkpt lat="44.5947" lon="2.59712">
        <ele>637</ele>
        <time>2026-08-13T23:46:58Z</time>
      </trkpt>
      <trkpt lat="44.59458" lon="2.59636">
        <ele>639</ele>
        <time>2026-08-13T23:48:12Z</time>
      </trkpt>
      <trkpt lat="44.59457" lon="2.59571">
        <ele>640</ele>
        <time>2026-08-13T23:49:14Z</time>
      </trkpt>
      <trkpt lat="44.59449" lon="2.59516">
        <ele>640</ele>
        <time>2026-08-13T23:50:07Z</time>
      </trkpt>
      <trkpt lat="44.59436" lon="2.5947">
        <ele>637</ele>
        <time>2026-08-13T23:50:54Z</time>
      </trkpt>
      <trkpt lat="44.59426" lon="2.59453">
        <ele>636</ele>
        <time>2026-08-13T23:51:15Z</time>
      </trkpt>
      <trkpt lat="44.59406" lon="2.59435">
        <ele>635</ele>
        <time>2026-08-13T23:51:47Z</time>
      </trkpt>
      <trkpt lat="44.59316" lon="2.59416">
        <ele>640</ele>
        <time>2026-08-13T23:53:48Z</time>
      </trkpt>
      <trkpt lat="44.59282" lon="2.59369">
        <ele>646</ele>
        <time>2026-08-13T23:54:52Z</time>
      </trkpt>
      <trkpt lat="44.59281" lon="2.59343">
        <ele>645</ele>
        <time>2026-08-13T23:55:17Z</time>
      </trkpt>
      <trkpt lat="44.59295" lon="2.59251">
        <ele>643</ele>
        <time>2026-08-13T23:56:46Z</time>
      </trkpt>
      <trkpt lat="44.59307" lon="2.59148">
        <ele>646</ele>
        <time>2026-08-13T23:58:25Z</time>
      </trkpt>
      <trkpt lat="44.59319" lon="2.59127">
        <ele>645</ele>
        <time>2026-08-13T23:58:51Z</time>
      </trkpt>
      <trkpt lat="44.59337" lon="2.59124">
        <ele>643</ele>
        <time>2026-08-13T23:59:15Z</time>
      </trkpt>
      <trkpt lat="44.59359" lon="2.59102">
        <ele>643</ele>
        <time>2026-08-13T23:59:51Z</time>
      </trkpt>
      <trkpt lat="44.59395" lon="2.59106">
        <ele>640</ele>
        <time>2026-08-14T00:00:39Z</time>
      </trkpt>
      <trkpt lat="44.59406" lon="2.59099">
        <ele>640</ele>
        <time>2026-08-14T00:00:55Z</time>
      </trkpt>
      <trkpt lat="44.59409" lon="2.59079">
        <ele>642</ele>
        <time>2026-08-14T00:01:15Z</time>
      </trkpt>
      <trkpt lat="44.59407" lon="2.59022">
        <ele>651</ele>
        <time>2026-08-14T00:02:09Z</time>
      </trkpt>
      <trkpt lat="44.59411" lon="2.58981">
        <ele>656</ele>
        <time>2026-08-14T00:02:48Z</time>
      </trkpt>
      <trkpt lat="44.59433" lon="2.58873">
        <ele>659</ele>
        <time>2026-08-14T00:04:35Z</time>
      </trkpt>
      <trkpt lat="44.59469" lon="2.58845">
        <ele>648</ele>
        <time>2026-08-14T00:05:30Z</time>
      </trkpt>
      <trkpt lat="44.59481" lon="2.58795">
        <ele>640</ele>
        <time>2026-08-14T00:06:20Z</time>
      </trkpt>
      <trkpt lat="44.59478" lon="2.58768">
        <ele>638</ele>
        <time>2026-08-14T00:06:46Z</time>
      </trkpt>
      <trkpt lat="44.59471" lon="2.58745">
        <ele>638</ele>
        <time>2026-08-14T00:07:10Z</time>
      </trkpt>
      <trkpt lat="44.59477" lon="2.5866">
        <ele>641</ele>
        <time>2026-08-14T00:08:31Z</time>
      </trkpt>
      <trkpt lat="44.59475" lon="2.58649">
        <ele>643</ele>
        <time>2026-08-14T00:08:42Z</time>
      </trkpt>
      <trkpt lat="44.59506" lon="2.5863">
        <ele>641</ele>
        <time>2026-08-14T00:09:27Z</time>
      </trkpt>
      <trkpt lat="44.59533" lon="2.58605">
        <ele>640</ele>
        <time>2026-08-14T00:10:10Z</time>
      </trkpt>
      <trkpt lat="44.59566" lon="2.58567">
        <ele>637</ele>
        <time>2026-08-14T00:11:07Z</time>
      </trkpt>
      <trkpt lat="44.5959" lon="2.58546">
        <ele>634</ele>
        <time>2026-08-14T00:11:45Z</time>
      </trkpt>
      <trkpt lat="44.59625" lon="2.5853">
        <ele>631</ele>
        <time>2026-08-14T00:12:34Z</time>
      </trkpt>
      <trkpt lat="44.59637" lon="2.58518">
        <ele>631</ele>
        <time>2026-08-14T00:12:54Z</time>
      </trkpt>
      <trkpt lat="44.59652" lon="2.58487">
        <ele>630</ele>
        <time>2026-08-14T00:13:29Z</time>
      </trkpt>
      <trkpt lat="44.59676" lon="2.58448">
        <ele>630</ele>
        <time>2026-08-14T00:14:18Z</time>
      </trkpt>
      <trkpt lat="44.59718" lon="2.58424">
        <ele>633</ele>
        <time>2026-08-14T00:15:19Z</time>
      </trkpt>
      <trkpt lat="44.59748" lon="2.58423">
        <ele>634</ele>
        <time>2026-08-14T00:15:59Z</time>
      </trkpt>
      <trkpt lat="44.59839" lon="2.58388">
        <ele>635</ele>
        <time>2026-08-14T00:18:05Z</time>
      </trkpt>
      <trkpt lat="44.59853" lon="2.58372">
        <ele>635</ele>
        <time>2026-08-14T00:18:29Z</time>
      </trkpt>
      <trkpt lat="44.59868" lon="2.58346">
        <ele>636</ele>
        <time>2026-08-14T00:19:00Z</time>
      </trkpt>
      <trkpt lat="44.59886" lon="2.58338">
        <ele>636</ele>
        <time>2026-08-14T00:19:26Z</time>
      </trkpt>
      <trkpt lat="44.59902" lon="2.58341">
        <ele>636</ele>
        <time>2026-08-14T00:19:47Z</time>
      </trkpt>
      <trkpt lat="44.59928" lon="2.58373">
        <ele>634</ele>
        <time>2026-08-14T00:20:33Z</time>
      </trkpt>
      <trkpt lat="44.59944" lon="2.58399">
        <ele>632</ele>
        <time>2026-08-14T00:21:06Z</time>
      </trkpt>
      <trkpt lat="44.59961" lon="2.58414">
        <ele>631</ele>
        <time>2026-08-14T00:21:33Z</time>
      </trkpt>
      <trkpt lat="44.59982" lon="2.58406">
        <ele>633</ele>
        <time>2026-08-14T00:22:02Z</time>
      </trkpt>
      <trkpt lat="44.59993" lon="2.58368">
        <ele>639</ele>
        <time>2026-08-14T00:22:41Z</time>
      </trkpt>
      <trkpt lat="44.59999" lon="2.58355">
        <ele>642</ele>
        <time>2026-08-14T00:22:56Z</time>
      </trkpt>
      <trkpt lat="44.60005" lon="2.58347">
        <ele>643</ele>
        <time>2026-08-14T00:23:07Z</time>
      </trkpt>
      <trkpt lat="44.6002" lon="2.58339">
        <ele>643</ele>
        <time>2026-08-14T00:23:28Z</time>
      </trkpt>
      <trkpt lat="44.60108" lon="2.58318">
        <ele>644</ele>
        <time>2026-08-14T00:25:27Z</time>
      </trkpt>
      <trkpt lat="44.60125" lon="2.58317">
        <ele>644</ele>
        <time>2026-08-14T00:25:50Z</time>
      </trkpt>
      <trkpt lat="44.60162" lon="2.58325">
        <ele>643</ele>
        <time>2026-08-14T00:26:40Z</time>
      </trkpt>
      <trkpt lat="44.60176" lon="2.58337">
        <ele>643</ele>
        <time>2026-08-14T00:27:02Z</time>
      </trkpt>
      <trkpt lat="44.60189" lon="2.58355">
        <ele>645</ele>
        <time>2026-08-14T00:27:26Z</time>
      </trkpt>
      <trkpt lat="44.60199" lon="2.58371">
        <ele>646</ele>
        <time>2026-08-14T00:27:46Z</time>
      </trkpt>
      <trkpt lat="44.60231" lon="2.58436">
        <ele>647</ele>
        <time>2026-08-14T00:29:01Z</time>
      </trkpt>
      <trkpt lat="44.60247" lon="2.58456">
        <ele>647</ele>
        <time>2026-08-14T00:29:30Z</time>
      </trkpt>
      <trkpt lat="44.60255" lon="2.58456">
        <ele>647</ele>
        <time>2026-08-14T00:29:41Z</time>
      </trkpt>
      <trkpt lat="44.60263" lon="2.58449">
        <ele>648</ele>
        <time>2026-08-14T00:29:53Z</time>
      </trkpt>
      <trkpt lat="44.60272" lon="2.58452">
        <ele>648</ele>
        <time>2026-08-14T00:30:06Z</time>
      </trkpt>
      <trkpt lat="44.60285" lon="2.58452">
        <ele>648</ele>
        <time>2026-08-14T00:30:23Z</time>
      </trkpt>
      <trkpt lat="44.60336" lon="2.58443">
        <ele>648</ele>
        <time>2026-08-14T00:31:31Z</time>
      </trkpt>
      <trkpt lat="44.60361" lon="2.58437">
        <ele>647</ele>
        <time>2026-08-14T00:32:05Z</time>
      </trkpt>
      <trkpt lat="44.6038" lon="2.58429">
        <ele>646</ele>
        <time>2026-08-14T00:32:32Z</time>
      </trkpt>
      <trkpt lat="44.60406" lon="2.58407">
        <ele>646</ele>
        <time>2026-08-14T00:33:12Z</time>
      </trkpt>
      <trkpt lat="44.60437" lon="2.58385">
        <ele>646</ele>
        <time>2026-08-14T00:33:59Z</time>
      </trkpt>
      <trkpt lat="44.60463" lon="2.58358">
        <ele>646</ele>
        <time>2026-08-14T00:34:42Z</time>
      </trkpt>
      <trkpt lat="44.60477" lon="2.58354">
        <ele>645</ele>
        <time>2026-08-14T00:35:01Z</time>
      </trkpt>
      <trkpt lat="44.6048" lon="2.58347">
        <ele>646</ele>
        <time>2026-08-14T00:35:09Z</time>
      </trkpt>
      <trkpt lat="44.60474" lon="2.58323">
        <ele>648</ele>
        <time>2026-08-14T00:35:33Z</time>
      </trkpt>
      <trkpt lat="44.60473" lon="2.58307">
        <ele>648</ele>
        <time>2026-08-14T00:35:48Z</time>
      </trkpt>
      <trkpt lat="44.60487" lon="2.5828">
        <ele>646</ele>
        <time>2026-08-14T00:36:20Z</time>
      </trkpt>
      <trkpt lat="44.60489" lon="2.58269">
        <ele>645</ele>
        <time>2026-08-14T00:36:31Z</time>
      </trkpt>
      <trkpt lat="44.60468" lon="2.58293">
        <ele>649</ele>
        <time>2026-08-14T00:37:07Z</time>
      </trkpt>
      <trkpt lat="44.60455" lon="2.58303">
        <ele>651</ele>
        <time>2026-08-14T00:37:26Z</time>
      </trkpt>
      <trkpt lat="44.6046" lon="2.58288">
        <ele>651</ele>
        <time>2026-08-14T00:37:42Z</time>
      </trkpt>
      <trkpt lat="44.6046" lon="2.58278">
        <ele>651</ele>
        <time>2026-08-14T00:37:52Z</time>
      </trkpt>
      <trkpt lat="44.60457" lon="2.5827">
        <ele>651</ele>
        <time>2026-08-14T00:38:00Z</time>
      </trkpt>
      <trkpt lat="44.6044" lon="2.58242">
        <ele>656</ele>
        <time>2026-08-14T00:38:35Z</time>
      </trkpt>
      <trkpt lat="44.60424" lon="2.58222">
        <ele>660</ele>
        <time>2026-08-14T00:39:04Z</time>
      </trkpt>
      <trkpt lat="44.60409" lon="2.58192">
        <ele>665</ele>
        <time>2026-08-14T00:39:39Z</time>
      </trkpt>
      <trkpt lat="44.60363" lon="2.58081">
        <ele>678</ele>
        <time>2026-08-14T00:41:41Z</time>
      </trkpt>
      <trkpt lat="44.60355" lon="2.58056">
        <ele>677</ele>
        <time>2026-08-14T00:42:07Z</time>
      </trkpt>
      <trkpt lat="44.60361" lon="2.58024">
        <ele>676</ele>
        <time>2026-08-14T00:42:38Z</time>
      </trkpt>
      <trkpt lat="44.60375" lon="2.57883">
        <ele>673</ele>
        <time>2026-08-14T00:44:53Z</time>
      </trkpt>
      <trkpt lat="44.60377" lon="2.57748">
        <ele>673</ele>
        <time>2026-08-14T00:47:02Z</time>
      </trkpt>
      <trkpt lat="44.60384" lon="2.57677">
        <ele>672</ele>
        <time>2026-08-14T00:48:10Z</time>
      </trkpt>
      <trkpt lat="44.60387" lon="2.57569">
        <ele>672</ele>
        <time>2026-08-14T00:49:53Z</time>
      </trkpt>
      <trkpt lat="44.60384" lon="2.57536">
        <ele>672</ele>
        <time>2026-08-14T00:50:24Z</time>
      </trkpt>
      <trkpt lat="44.60375" lon="2.57484">
        <ele>672</ele>
        <time>2026-08-14T00:51:15Z</time>
      </trkpt>
      <trkpt lat="44.6037" lon="2.5734">
        <ele>669</ele>
        <time>2026-08-14T00:53:32Z</time>
      </trkpt>
      <trkpt lat="44.60376" lon="2.57268">
        <ele>666</ele>
        <time>2026-08-14T00:54:41Z</time>
      </trkpt>
      <trkpt lat="44.60385" lon="2.57212">
        <ele>663</ele>
        <time>2026-08-14T00:55:35Z</time>
      </trkpt>
      <trkpt lat="44.60396" lon="2.57167">
        <ele>660</ele>
        <time>2026-08-14T00:56:21Z</time>
      </trkpt>
      <trkpt lat="44.60396" lon="2.57157">
        <ele>659</ele>
        <time>2026-08-14T00:56:30Z</time>
      </trkpt>
      <trkpt lat="44.60386" lon="2.5713">
        <ele>656</ele>
        <time>2026-08-14T00:56:59Z</time>
      </trkpt>
      <trkpt lat="44.60338" lon="2.57075">
        <ele>652</ele>
        <time>2026-08-14T00:58:22Z</time>
      </trkpt>
      <trkpt lat="44.60333" lon="2.57066">
        <ele>651</ele>
        <time>2026-08-14T00:58:32Z</time>
      </trkpt>
      <trkpt lat="44.60328" lon="2.57018">
        <ele>647</ele>
        <time>2026-08-14T00:59:19Z</time>
      </trkpt>
      <trkpt lat="44.60329" lon="2.56981">
        <ele>644</ele>
        <time>2026-08-14T00:59:54Z</time>
      </trkpt>
      <trkpt lat="44.60331" lon="2.56951">
        <ele>643</ele>
        <time>2026-08-14T01:00:22Z</time>
      </trkpt>
      <trkpt lat="44.6036" lon="2.56839">
        <ele>639</ele>
        <time>2026-08-14T01:02:16Z</time>
      </trkpt>
      <trkpt lat="44.6037" lon="2.56784">
        <ele>638</ele>
        <time>2026-08-14T01:03:10Z</time>
      </trkpt>
      <trkpt lat="44.60371" lon="2.56748">
        <ele>638</ele>
        <time>2026-08-14T01:03:44Z</time>
      </trkpt>
      <trkpt lat="44.60358" lon="2.56537">
        <ele>636</ele>
        <time>2026-08-14T01:07:05Z</time>
      </trkpt>
      <trkpt lat="44.6036" lon="2.56494">
        <ele>636</ele>
        <time>2026-08-14T01:07:46Z</time>
      </trkpt>
      <trkpt lat="44.60371" lon="2.56452">
        <ele>635</ele>
        <time>2026-08-14T01:08:28Z</time>
      </trkpt>
      <trkpt lat="44.60398" lon="2.56381">
        <ele>635</ele>
        <time>2026-08-14T01:09:45Z</time>
      </trkpt>
      <trkpt lat="44.60408" lon="2.56373">
        <ele>635</ele>
        <time>2026-08-14T01:10:00Z</time>
      </trkpt>
      <trkpt lat="44.60438" lon="2.56316">
        <ele>639</ele>
        <time>2026-08-14T01:11:08Z</time>
      </trkpt>
      <trkpt lat="44.60449" lon="2.56263">
        <ele>645</ele>
        <time>2026-08-14T01:12:00Z</time>
      </trkpt>
      <trkpt lat="44.60474" lon="2.56172">
        <ele>654</ele>
        <time>2026-08-14T01:13:33Z</time>
      </trkpt>
      <trkpt lat="44.60481" lon="2.56155">
        <ele>654</ele>
        <time>2026-08-14T01:13:51Z</time>
      </trkpt>
      <trkpt lat="44.60508" lon="2.56126">
        <ele>655</ele>
        <time>2026-08-14T01:14:37Z</time>
      </trkpt>
      <trkpt lat="44.60516" lon="2.56101">
        <ele>655</ele>
        <time>2026-08-14T01:15:03Z</time>
      </trkpt>
      <trkpt lat="44.6052" lon="2.56065">
        <ele>655</ele>
        <time>2026-08-14T01:15:37Z</time>
      </trkpt>
      <trkpt lat="44.60525" lon="2.55971">
        <ele>655</ele>
        <time>2026-08-14T01:17:07Z</time>
      </trkpt>
      <trkpt lat="44.60535" lon="2.55922">
        <ele>654</ele>
        <time>2026-08-14T01:17:55Z</time>
      </trkpt>
      <trkpt lat="44.60504" lon="2.55804">
        <ele>646</ele>
        <time>2026-08-14T01:19:55Z</time>
      </trkpt>
      <trkpt lat="44.60587" lon="2.55768">
        <ele>646</ele>
        <time>2026-08-14T01:21:51Z</time>
      </trkpt>
      <trkpt lat="44.60584" lon="2.55756">
        <ele>645</ele>
        <time>2026-08-14T01:22:03Z</time>
      </trkpt>
      <trkpt lat="44.60573" lon="2.55735">
        <ele>642</ele>
        <time>2026-08-14T01:22:28Z</time>
      </trkpt>
      <trkpt lat="44.60572" lon="2.55728">
        <ele>642</ele>
        <time>2026-08-14T01:22:34Z</time>
      </trkpt>
      <trkpt lat="44.60573" lon="2.5572">
        <ele>641</ele>
        <time>2026-08-14T01:22:42Z</time>
      </trkpt>
      <trkpt lat="44.60583" lon="2.55702">
        <ele>640</ele>
        <time>2026-08-14T01:23:04Z</time>
      </trkpt>
      <trkpt lat="44.60583" lon="2.55695">
        <ele>639</ele>
        <time>2026-08-14T01:23:11Z</time>
      </trkpt>
      <trkpt lat="44.60581" lon="2.55688">
        <ele>639</ele>
        <time>2026-08-14T01:23:18Z</time>
      </trkpt>
      <trkpt lat="44.60572" lon="2.55681">
        <ele>638</ele>
        <time>2026-08-14T01:23:31Z</time>
      </trkpt>
      <trkpt lat="44.60557" lon="2.55676">
        <ele>636</ele>
        <time>2026-08-14T01:23:52Z</time>
      </trkpt>
      <trkpt lat="44.60553" lon="2.55671">
        <ele>636</ele>
        <time>2026-08-14T01:23:59Z</time>
      </trkpt>
      <trkpt lat="44.60535" lon="2.55613">
        <ele>630</ele>
        <time>2026-08-14T01:24:59Z</time>
      </trkpt>
      <trkpt lat="44.60501" lon="2.55443">
        <ele>615</ele>
        <time>2026-08-14T01:27:47Z</time>
      </trkpt>
      <trkpt lat="44.60492" lon="2.55422">
        <ele>612</ele>
        <time>2026-08-14T01:28:10Z</time>
      </trkpt>
      <trkpt lat="44.60467" lon="2.55329">
        <ele>606</ele>
        <time>2026-08-14T01:29:45Z</time>
      </trkpt>
      <trkpt lat="44.6045" lon="2.55306">
        <ele>606</ele>
        <time>2026-08-14T01:30:16Z</time>
      </trkpt>
      <trkpt lat="44.60425" lon="2.5529">
        <ele>607</ele>
        <time>2026-08-14T01:30:53Z</time>
      </trkpt>
      <trkpt lat="44.60411" lon="2.55273">
        <ele>608</ele>
        <time>2026-08-14T01:31:18Z</time>
      </trkpt>
      <trkpt lat="44.60411" lon="2.55238">
        <ele>610</ele>
        <time>2026-08-14T01:31:51Z</time>
      </trkpt>
      <trkpt lat="44.60415" lon="2.55228">
        <ele>611</ele>
        <time>2026-08-14T01:32:02Z</time>
      </trkpt>
      <trkpt lat="44.60429" lon="2.55207">
        <ele>612</ele>
        <time>2026-08-14T01:32:29Z</time>
      </trkpt>
      <trkpt lat="44.60441" lon="2.55169">
        <ele>614</ele>
        <time>2026-08-14T01:33:09Z</time>
      </trkpt>
      <trkpt lat="44.60446" lon="2.55055">
        <ele>614</ele>
        <time>2026-08-14T01:34:57Z</time>
      </trkpt>
      <trkpt lat="44.60444" lon="2.55035">
        <ele>612</ele>
        <time>2026-08-14T01:35:16Z</time>
      </trkpt>
      <trkpt lat="44.60439" lon="2.55022">
        <ele>612</ele>
        <time>2026-08-14T01:35:30Z</time>
      </trkpt>
      <trkpt lat="44.60429" lon="2.55009">
        <ele>612</ele>
        <time>2026-08-14T01:35:49Z</time>
      </trkpt>
      <trkpt lat="44.60383" lon="2.54978">
        <ele>613</ele>
        <time>2026-08-14T01:36:57Z</time>
      </trkpt>
      <trkpt lat="44.60367" lon="2.54977">
        <ele>615</ele>
        <time>2026-08-14T01:37:18Z</time>
      </trkpt>
      <trkpt lat="44.60343" lon="2.54957">
        <ele>613</ele>
        <time>2026-08-14T01:37:55Z</time>
      </trkpt>
      <trkpt lat="44.6033" lon="2.54868">
        <ele>600</ele>
        <time>2026-08-14T01:39:22Z</time>
      </trkpt>
      <trkpt lat="44.60282" lon="2.54711">
        <ele>599</ele>
        <time>2026-08-14T01:42:04Z</time>
      </trkpt>
      <trkpt lat="44.60281" lon="2.54685">
        <ele>599</ele>
        <time>2026-08-14T01:42:29Z</time>
      </trkpt>
      <trkpt lat="44.60272" lon="2.54663">
        <ele>599</ele>
        <time>2026-08-14T01:42:53Z</time>
      </trkpt>
      <trkpt lat="44.60252" lon="2.54638">
        <ele>598</ele>
        <time>2026-08-14T01:43:28Z</time>
      </trkpt>
      <trkpt lat="44.60242" lon="2.54615">
        <ele>597</ele>
        <time>2026-08-14T01:43:54Z</time>
      </trkpt>
      <trkpt lat="44.60227" lon="2.54603">
        <ele>597</ele>
        <time>2026-08-14T01:44:17Z</time>
      </trkpt>
      <trkpt lat="44.60209" lon="2.546">
        <ele>598</ele>
        <time>2026-08-14T01:44:41Z</time>
      </trkpt>
      <trkpt lat="44.60165" lon="2.54611">
        <ele>601</ele>
        <time>2026-08-14T01:45:41Z</time>
      </trkpt>
      <trkpt lat="44.60157" lon="2.5461">
        <ele>600</ele>
        <time>2026-08-14T01:45:52Z</time>
      </trkpt>
      <trkpt lat="44.60125" lon="2.54578">
        <ele>599</ele>
        <time>2026-08-14T01:46:44Z</time>
      </trkpt>
      <trkpt lat="44.6011" lon="2.54569">
        <ele>599</ele>
        <time>2026-08-14T01:47:06Z</time>
      </trkpt>
      <trkpt lat="44.60103" lon="2.54562">
        <ele>599</ele>
        <time>2026-08-14T01:47:17Z</time>
      </trkpt>
      <trkpt lat="44.60098" lon="2.54551">
        <ele>599</ele>
        <time>2026-08-14T01:47:30Z</time>
      </trkpt>
      <trkpt lat="44.60107" lon="2.54396">
        <ele>605</ele>
        <time>2026-08-14T01:49:57Z</time>
      </trkpt>
      <trkpt lat="44.60107" lon="2.54287">
        <ele>611</ele>
        <time>2026-08-14T01:51:41Z</time>
      </trkpt>
      <trkpt lat="44.60079" lon="2.5412">
        <ele>622</ele>
        <time>2026-08-14T01:54:24Z</time>
      </trkpt>
      <trkpt lat="44.60076" lon="2.54045">
        <ele>625</ele>
        <time>2026-08-14T01:55:35Z</time>
      </trkpt>
      <trkpt lat="44.60072" lon="2.5401">
        <ele>627</ele>
        <time>2026-08-14T01:56:09Z</time>
      </trkpt>
      <trkpt lat="44.60061" lon="2.53971">
        <ele>627</ele>
        <time>2026-08-14T01:56:49Z</time>
      </trkpt>
      <trkpt lat="44.60008" lon="2.53875">
        <ele>631</ele>
        <time>2026-08-14T01:58:44Z</time>
      </trkpt>
      <trkpt lat="44.59952" lon="2.53733">
        <ele>638</ele>
        <time>2026-08-14T02:01:19Z</time>
      </trkpt>
      <trkpt lat="44.60018" lon="2.53639">
        <ele>637</ele>
        <time>2026-08-14T02:03:24Z</time>
      </trkpt>
      <trkpt lat="44.60026" lon="2.53622">
        <ele>636</ele>
        <time>2026-08-14T02:03:43Z</time>
      </trkpt>
      <trkpt lat="44.60022" lon="2.53604">
        <ele>636</ele>
        <time>2026-08-14T02:04:01Z</time>
      </trkpt>
      <trkpt lat="44.6" lon="2.53571">
        <ele>634</ele>
        <time>2026-08-14T02:04:44Z</time>
      </trkpt>
      <trkpt lat="44.59998" lon="2.53552">
        <ele>633</ele>
        <time>2026-08-14T02:05:03Z</time>
      </trkpt>
      <trkpt lat="44.60024" lon="2.535">
        <ele>632</ele>
        <time>2026-08-14T02:06:03Z</time>
      </trkpt>
      <trkpt lat="44.60034" lon="2.53453">
        <ele>628</ele>
        <time>2026-08-14T02:06:50Z</time>
      </trkpt>
      <trkpt lat="44.60045" lon="2.53386">
        <ele>623</ele>
        <time>2026-08-14T02:07:55Z</time>
      </trkpt>
      <trkpt lat="44.60049" lon="2.53305">
        <ele>616</ele>
        <time>2026-08-14T02:09:12Z</time>
      </trkpt>
      <trkpt lat="44.60049" lon="2.533">
        <ele>616</ele>
        <time>2026-08-14T02:09:17Z</time>
      </trkpt>
      <trkpt lat="44.60045" lon="2.53293">
        <ele>614</ele>
        <time>2026-08-14T02:09:25Z</time>
      </trkpt>
      <trkpt lat="44.60039" lon="2.53293">
        <ele>612</ele>
        <time>2026-08-14T02:09:33Z</time>
      </trkpt>
      <trkpt lat="44.59992" lon="2.53357">
        <ele>607</ele>
        <time>2026-08-14T02:11:01Z</time>
      </trkpt>
      <trkpt lat="44.59971" lon="2.53377">
        <ele>606</ele>
        <time>2026-08-14T02:11:35Z</time>
      </trkpt>
      <trkpt lat="44.59947" lon="2.53393">
        <ele>605</ele>
        <time>2026-08-14T02:12:10Z</time>
      </trkpt>
      <trkpt lat="44.5994" lon="2.5339">
        <ele>603</ele>
        <time>2026-08-14T02:12:20Z</time>
      </trkpt>
      <trkpt lat="44.59937" lon="2.53383">
        <ele>601</ele>
        <time>2026-08-14T02:12:28Z</time>
      </trkpt>
      <trkpt lat="44.59939" lon="2.53372">
        <ele>600</ele>
        <time>2026-08-14T02:12:38Z</time>
      </trkpt>
      <trkpt lat="44.59958" lon="2.53345">
        <ele>598</ele>
        <time>2026-08-14T02:13:14Z</time>
      </trkpt>
      <trkpt lat="44.59971" lon="2.53301">
        <ele>595</ele>
        <time>2026-08-14T02:14:00Z</time>
      </trkpt>
      <trkpt lat="44.59977" lon="2.53269">
        <ele>593</ele>
        <time>2026-08-14T02:14:31Z</time>
      </trkpt>
      <trkpt lat="44.60002" lon="2.53068">
        <ele>570</ele>
        <time>2026-08-14T02:17:45Z</time>
      </trkpt>
      <trkpt lat="44.60028" lon="2.53002">
        <ele>563</ele>
        <time>2026-08-14T02:18:57Z</time>
      </trkpt>
      <trkpt lat="44.60078" lon="2.52941">
        <ele>557</ele>
        <time>2026-08-14T02:20:25Z</time>
      </trkpt>
      <trkpt lat="44.60091" lon="2.5293">
        <ele>556</ele>
        <time>2026-08-14T02:20:45Z</time>
      </trkpt>
      <trkpt lat="44.60146" lon="2.52871">
        <ele>549</ele>
        <time>2026-08-14T02:22:18Z</time>
      </trkpt>
      <trkpt lat="44.6018" lon="2.5285">
        <ele>550</ele>
        <time>2026-08-14T02:23:07Z</time>
      </trkpt>
      <trkpt lat="44.60213" lon="2.52839">
        <ele>552</ele>
        <time>2026-08-14T02:23:52Z</time>
      </trkpt>
      <trkpt lat="44.60217" lon="2.52835">
        <ele>552</ele>
        <time>2026-08-14T02:23:59Z</time>
      </trkpt>
      <trkpt lat="44.60217" lon="2.52829">
        <ele>550</ele>
        <time>2026-08-14T02:24:05Z</time>
      </trkpt>
      <trkpt lat="44.60216" lon="2.52823">
        <ele>549</ele>
        <time>2026-08-14T02:24:11Z</time>
      </trkpt>
      <trkpt lat="44.60213" lon="2.5282">
        <ele>547</ele>
        <time>2026-08-14T02:24:15Z</time>
      </trkpt>
      <trkpt lat="44.60204" lon="2.52817">
        <ele>545</ele>
        <time>2026-08-14T02:24:28Z</time>
      </trkpt>
      <trkpt lat="44.60129" lon="2.52797">
        <ele>527</ele>
        <time>2026-08-14T02:26:10Z</time>
      </trkpt>
      <trkpt lat="44.60115" lon="2.52797">
        <ele>525</ele>
        <time>2026-08-14T02:26:28Z</time>
      </trkpt>
      <trkpt lat="44.60104" lon="2.528">
        <ele>524</ele>
        <time>2026-08-14T02:26:43Z</time>
      </trkpt>
      <trkpt lat="44.60056" lon="2.52826">
        <ele>524</ele>
        <time>2026-08-14T02:27:52Z</time>
      </trkpt>
      <trkpt lat="44.60038" lon="2.52839">
        <ele>524</ele>
        <time>2026-08-14T02:28:19Z</time>
      </trkpt>
      <trkpt lat="44.60025" lon="2.52844">
        <ele>524</ele>
        <time>2026-08-14T02:28:37Z</time>
      </trkpt>
      <trkpt lat="44.59977" lon="2.52814">
        <ele>511</ele>
        <time>2026-08-14T02:29:47Z</time>
      </trkpt>
      <trkpt lat="44.59975" lon="2.52803">
        <ele>509</ele>
        <time>2026-08-14T02:29:58Z</time>
      </trkpt>
      <trkpt lat="44.59979" lon="2.52793">
        <ele>508</ele>
        <time>2026-08-14T02:30:09Z</time>
      </trkpt>
      <trkpt lat="44.59986" lon="2.52786">
        <ele>507</ele>
        <time>2026-08-14T02:30:20Z</time>
      </trkpt>
      <trkpt lat="44.60003" lon="2.52777">
        <ele>507</ele>
        <time>2026-08-14T02:30:44Z</time>
      </trkpt>
      <trkpt lat="44.60021" lon="2.52775">
        <ele>509</ele>
        <time>2026-08-14T02:31:09Z</time>
      </trkpt>
      <trkpt lat="44.60035" lon="2.52764">
        <ele>508</ele>
        <time>2026-08-14T02:31:30Z</time>
      </trkpt>
      <trkpt lat="44.60105" lon="2.5267">
        <ele>496</ele>
        <time>2026-08-14T02:33:39Z</time>
      </trkpt>
      <trkpt lat="44.60112" lon="2.52667">
        <ele>495</ele>
        <time>2026-08-14T02:33:49Z</time>
      </trkpt>
      <trkpt lat="44.6012" lon="2.52667">
        <ele>496</ele>
        <time>2026-08-14T02:34:00Z</time>
      </trkpt>
      <trkpt lat="44.60134" lon="2.52674">
        <ele>499</ele>
        <time>2026-08-14T02:34:19Z</time>
      </trkpt>
      <trkpt lat="44.60141" lon="2.52674">
        <ele>500</ele>
        <time>2026-08-14T02:34:29Z</time>
      </trkpt>
      <trkpt lat="44.60153" lon="2.52669">
        <ele>499</ele>
        <time>2026-08-14T02:34:46Z</time>
      </trkpt>
      <trkpt lat="44.60161" lon="2.52662">
        <ele>499</ele>
        <time>2026-08-14T02:34:58Z</time>
      </trkpt>
      <trkpt lat="44.60173" lon="2.52641">
        <ele>496</ele>
        <time>2026-08-14T02:35:24Z</time>
      </trkpt>
      <trkpt lat="44.602" lon="2.52574">
        <ele>487</ele>
        <time>2026-08-14T02:36:37Z</time>
      </trkpt>
      <trkpt lat="44.60219" lon="2.52549">
        <ele>487</ele>
        <time>2026-08-14T02:37:12Z</time>
      </trkpt>
      <trkpt lat="44.60239" lon="2.52536">
        <ele>488</ele>
        <time>2026-08-14T02:37:41Z</time>
      </trkpt>
      <trkpt lat="44.60256" lon="2.52518">
        <ele>488</ele>
        <time>2026-08-14T02:38:09Z</time>
      </trkpt>
      <trkpt lat="44.60281" lon="2.52505">
        <ele>491</ele>
        <time>2026-08-14T02:38:45Z</time>
      </trkpt>
      <trkpt lat="44.60319" lon="2.52472">
        <ele>489</ele>
        <time>2026-08-14T02:39:45Z</time>
      </trkpt>
      <trkpt lat="44.60362" lon="2.52455">
        <ele>492</ele>
        <time>2026-08-14T02:40:44Z</time>
      </trkpt>
      <trkpt lat="44.60383" lon="2.5244">
        <ele>492</ele>
        <time>2026-08-14T02:41:16Z</time>
      </trkpt>
      <trkpt lat="44.60414" lon="2.52386">
        <ele>489</ele>
        <time>2026-08-14T02:42:22Z</time>
      </trkpt>
      <trkpt lat="44.6043" lon="2.52367">
        <ele>492</ele>
        <time>2026-08-14T02:42:50Z</time>
      </trkpt>
      <trkpt lat="44.60432" lon="2.52359">
        <ele>492</ele>
        <time>2026-08-14T02:42:58Z</time>
      </trkpt>
      <trkpt lat="44.6043" lon="2.52347">
        <ele>490</ele>
        <time>2026-08-14T02:43:09Z</time>
      </trkpt>
      <trkpt lat="44.60376" lon="2.52239">
        <ele>479</ele>
        <time>2026-08-14T02:45:15Z</time>
      </trkpt>
      <trkpt lat="44.60365" lon="2.52192">
        <ele>480</ele>
        <time>2026-08-14T02:46:02Z</time>
      </trkpt>
      <trkpt lat="44.60359" lon="2.52178">
        <ele>479</ele>
        <time>2026-08-14T02:46:17Z</time>
      </trkpt>
      <trkpt lat="44.60343" lon="2.52161">
        <ele>475</ele>
        <time>2026-08-14T02:46:44Z</time>
      </trkpt>
      <trkpt lat="44.60342" lon="2.52138">
        <ele>473</ele>
        <time>2026-08-14T02:47:06Z</time>
      </trkpt>
      <trkpt lat="44.60347" lon="2.52126">
        <ele>474</ele>
        <time>2026-08-14T02:47:19Z</time>
      </trkpt>
      <trkpt lat="44.60356" lon="2.52113">
        <ele>475</ele>
        <time>2026-08-14T02:47:36Z</time>
      </trkpt>
      <trkpt lat="44.60398" lon="2.52074">
        <ele>480</ele>
        <time>2026-08-14T02:48:44Z</time>
      </trkpt>
      <trkpt lat="44.6046" lon="2.52005">
        <ele>476</ele>
        <time>2026-08-14T02:50:29Z</time>
      </trkpt>
      <trkpt lat="44.60489" lon="2.51959">
        <ele>470</ele>
        <time>2026-08-14T02:51:27Z</time>
      </trkpt>
      <trkpt lat="44.60505" lon="2.51948">
        <ele>470</ele>
        <time>2026-08-14T02:51:51Z</time>
      </trkpt>
      <trkpt lat="44.60546" lon="2.51934">
        <ele>471</ele>
        <time>2026-08-14T02:52:48Z</time>
      </trkpt>
      <trkpt lat="44.60579" lon="2.51891">
        <ele>466</ele>
        <time>2026-08-14T02:53:48Z</time>
      </trkpt>
      <trkpt lat="44.60597" lon="2.5188">
        <ele>468</ele>
        <time>2026-08-14T02:54:14Z</time>
      </trkpt>
      <trkpt lat="44.60597" lon="2.5187">
        <ele>467</ele>
        <time>2026-08-14T02:54:23Z</time>
      </trkpt>
      <trkpt lat="44.60587" lon="2.51855">
        <ele>463</ele>
        <time>2026-08-14T02:54:43Z</time>
      </trkpt>
      <trkpt lat="44.60547" lon="2.51825">
        <ele>449</ele>
        <time>2026-08-14T02:55:43Z</time>
      </trkpt>
      <trkpt lat="44.60543" lon="2.51817">
        <ele>447</ele>
        <time>2026-08-14T02:55:53Z</time>
      </trkpt>
      <trkpt lat="44.60543" lon="2.51801">
        <ele>446</ele>
        <time>2026-08-14T02:56:08Z</time>
      </trkpt>
      <trkpt lat="44.60551" lon="2.5178">
        <ele>446</ele>
        <time>2026-08-14T02:56:30Z</time>
      </trkpt>
      <trkpt lat="44.60628" lon="2.51695">
        <ele>448</ele>
        <time>2026-08-14T02:58:41Z</time>
      </trkpt>
      <trkpt lat="44.6063" lon="2.51675">
        <ele>446</ele>
        <time>2026-08-14T02:59:00Z</time>
      </trkpt>
      <trkpt lat="44.60625" lon="2.5166">
        <ele>443</ele>
        <time>2026-08-14T02:59:16Z</time>
      </trkpt>
      <trkpt lat="44.60629" lon="2.51632">
        <ele>441</ele>
        <time>2026-08-14T02:59:43Z</time>
      </trkpt>
      <trkpt lat="44.60647" lon="2.51618">
        <ele>442</ele>
        <time>2026-08-14T03:00:11Z</time>
      </trkpt>
      <trkpt lat="44.60667" lon="2.51616">
        <ele>446</ele>
        <time>2026-08-14T03:00:37Z</time>
      </trkpt>
      <trkpt lat="44.60705" lon="2.51587">
        <ele>443</ele>
        <time>2026-08-14T03:01:35Z</time>
      </trkpt>
      <trkpt lat="44.60733" lon="2.51571">
        <ele>442</ele>
        <time>2026-08-14T03:02:15Z</time>
      </trkpt>
      <trkpt lat="44.60766" lon="2.51565">
        <ele>442</ele>
        <time>2026-08-14T03:03:00Z</time>
      </trkpt>
      <trkpt lat="44.60777" lon="2.51569">
        <ele>442</ele>
        <time>2026-08-14T03:03:15Z</time>
      </trkpt>
      <trkpt lat="44.60811" lon="2.51616">
        <ele>451</ele>
        <time>2026-08-14T03:04:19Z</time>
      </trkpt>
      <trkpt lat="44.60842" lon="2.51627">
        <ele>454</ele>
        <time>2026-08-14T03:05:01Z</time>
      </trkpt>
      <trkpt lat="44.60872" lon="2.51629">
        <ele>455</ele>
        <time>2026-08-14T03:05:41Z</time>
      </trkpt>
      <trkpt lat="44.609" lon="2.51654">
        <ele>460</ele>
        <time>2026-08-14T03:06:26Z</time>
      </trkpt>
      <trkpt lat="44.60911" lon="2.51654">
        <ele>460</ele>
        <time>2026-08-14T03:06:40Z</time>
      </trkpt>
      <trkpt lat="44.60922" lon="2.51637">
        <ele>458</ele>
        <time>2026-08-14T03:07:02Z</time>
      </trkpt>
      <trkpt lat="44.60918" lon="2.51594">
        <ele>449</ele>
        <time>2026-08-14T03:07:43Z</time>
      </trkpt>
      <trkpt lat="44.60922" lon="2.51572">
        <ele>445</ele>
        <time>2026-08-14T03:08:05Z</time>
      </trkpt>
      <trkpt lat="44.60933" lon="2.51568">
        <ele>445</ele>
        <time>2026-08-14T03:08:20Z</time>
      </trkpt>
      <trkpt lat="44.60967" lon="2.51565">
        <ele>446</ele>
        <time>2026-08-14T03:09:06Z</time>
      </trkpt>
      <trkpt lat="44.6097" lon="2.51555">
        <ele>444</ele>
        <time>2026-08-14T03:09:16Z</time>
      </trkpt>
      <trkpt lat="44.61009" lon="2.51532">
        <ele>439</ele>
        <time>2026-08-14T03:10:12Z</time>
      </trkpt>
      <trkpt lat="44.61027" lon="2.51523">
        <ele>437</ele>
        <time>2026-08-14T03:10:38Z</time>
      </trkpt>
      <trkpt lat="44.61035" lon="2.51522">
        <ele>437</ele>
        <time>2026-08-14T03:10:49Z</time>
      </trkpt>
      <trkpt lat="44.61039" lon="2.51514">
        <ele>435</ele>
        <time>2026-08-14T03:10:58Z</time>
      </trkpt>
      <trkpt lat="44.61036" lon="2.515">
        <ele>431</ele>
        <time>2026-08-14T03:11:12Z</time>
      </trkpt>
      <trkpt lat="44.61038" lon="2.51447">
        <ele>422</ele>
        <time>2026-08-14T03:12:02Z</time>
      </trkpt>
      <trkpt lat="44.61044" lon="2.51423">
        <ele>417</ele>
        <time>2026-08-14T03:12:26Z</time>
      </trkpt>
      <trkpt lat="44.61055" lon="2.5141">
        <ele>415</ele>
        <time>2026-08-14T03:12:45Z</time>
      </trkpt>
      <trkpt lat="44.61057" lon="2.5138">
        <ele>410</ele>
        <time>2026-08-14T03:13:14Z</time>
      </trkpt>
      <trkpt lat="44.61064" lon="2.51366">
        <ele>408</ele>
        <time>2026-08-14T03:13:30Z</time>
      </trkpt>
      <trkpt lat="44.61075" lon="2.51362">
        <ele>408</ele>
        <time>2026-08-14T03:13:46Z</time>
      </trkpt>
      <trkpt lat="44.61086" lon="2.51363">
        <ele>409</ele>
        <time>2026-08-14T03:14:00Z</time>
      </trkpt>
      <trkpt lat="44.61107" lon="2.51351">
        <ele>405</ele>
        <time>2026-08-14T03:14:31Z</time>
      </trkpt>
      <trkpt lat="44.61114" lon="2.51353">
        <ele>405</ele>
        <time>2026-08-14T03:14:40Z</time>
      </trkpt>
      <trkpt lat="44.61122" lon="2.51359">
        <ele>405</ele>
        <time>2026-08-14T03:14:52Z</time>
      </trkpt>
      <trkpt lat="44.61134" lon="2.51393">
        <ele>408</ele>
        <time>2026-08-14T03:15:28Z</time>
      </trkpt>
      <trkpt lat="44.61143" lon="2.51432">
        <ele>412</ele>
        <time>2026-08-14T03:16:07Z</time>
      </trkpt>
      <trkpt lat="44.61181" lon="2.51459">
        <ele>409</ele>
        <time>2026-08-14T03:17:04Z</time>
      </trkpt>
      <trkpt lat="44.612" lon="2.51476">
        <ele>408</ele>
        <time>2026-08-14T03:17:34Z</time>
      </trkpt>
      <trkpt lat="44.61206" lon="2.51491">
        <ele>408</ele>
        <time>2026-08-14T03:17:50Z</time>
      </trkpt>
      <trkpt lat="44.61205" lon="2.51533">
        <ele>412</ele>
        <time>2026-08-14T03:18:30Z</time>
      </trkpt>
      <trkpt lat="44.61213" lon="2.51542">
        <ele>412</ele>
        <time>2026-08-14T03:18:44Z</time>
      </trkpt>
      <trkpt lat="44.61218" lon="2.51539">
        <ele>411</ele>
        <time>2026-08-14T03:18:51Z</time>
      </trkpt>
      <trkpt lat="44.61228" lon="2.51526">
        <ele>408</ele>
        <time>2026-08-14T03:19:09Z</time>
      </trkpt>
      <trkpt lat="44.61234" lon="2.51508">
        <ele>406</ele>
        <time>2026-08-14T03:19:28Z</time>
      </trkpt>
      <trkpt lat="44.61235" lon="2.5147">
        <ele>404</ele>
        <time>2026-08-14T03:20:04Z</time>
      </trkpt>
      <trkpt lat="44.61238" lon="2.51449">
        <ele>402</ele>
        <time>2026-08-14T03:20:25Z</time>
      </trkpt>
      <trkpt lat="44.61232" lon="2.5142">
        <ele>402</ele>
        <time>2026-08-14T03:20:53Z</time>
      </trkpt>
      <trkpt lat="44.61224" lon="2.51405">
        <ele>402</ele>
        <time>2026-08-14T03:21:11Z</time>
      </trkpt>
      <trkpt lat="44.61223" lon="2.51381">
        <ele>400</ele>
        <time>2026-08-14T03:21:34Z</time>
      </trkpt>
      <trkpt lat="44.61255" lon="2.51319">
        <ele>399</ele>
        <time>2026-08-14T03:22:47Z</time>
      </trkpt>
      <trkpt lat="44.61259" lon="2.51305">
        <ele>400</ele>
        <time>2026-08-14T03:23:01Z</time>
      </trkpt>
      <trkpt lat="44.61258" lon="2.51281">
        <ele>400</ele>
        <time>2026-08-14T03:23:24Z</time>
      </trkpt>
      <trkpt lat="44.61245" lon="2.51236">
        <ele>397</ele>
        <time>2026-08-14T03:24:10Z</time>
      </trkpt>
      <trkpt lat="44.6124" lon="2.51189">
        <ele>396</ele>
        <time>2026-08-14T03:24:55Z</time>
      </trkpt>
      <trkpt lat="44.61243" lon="2.51169">
        <ele>396</ele>
        <time>2026-08-14T03:25:15Z</time>
      </trkpt>
      <trkpt lat="44.61255" lon="2.51128">
        <ele>397</ele>
        <time>2026-08-14T03:25:57Z</time>
      </trkpt>
      <trkpt lat="44.61271" lon="2.51081">
        <ele>396</ele>
        <time>2026-08-14T03:26:46Z</time>
      </trkpt>
      <trkpt lat="44.61279" lon="2.51071">
        <ele>397</ele>
        <time>2026-08-14T03:27:01Z</time>
      </trkpt>
      <trkpt lat="44.6126" lon="2.51041">
        <ele>394</ele>
        <time>2026-08-14T03:27:39Z</time>
      </trkpt>
      <trkpt lat="44.61253" lon="2.51019">
        <ele>393</ele>
        <time>2026-08-14T03:28:02Z</time>
      </trkpt>
      <trkpt lat="44.61254" lon="2.51008">
        <ele>393</ele>
        <time>2026-08-14T03:28:12Z</time>
      </trkpt>
      <trkpt lat="44.61258" lon="2.51013">
        <ele>394</ele>
        <time>2026-08-14T03:28:19Z</time>
      </trkpt>
      <trkpt lat="44.61265" lon="2.51016">
        <ele>394</ele>
        <time>2026-08-14T03:28:29Z</time>
      </trkpt>
      <trkpt lat="44.61306" lon="2.51019">
        <ele>396</ele>
        <time>2026-08-14T03:29:24Z</time>
      </trkpt>
      <trkpt lat="44.61317" lon="2.5103">
        <ele>398</ele>
        <time>2026-08-14T03:29:42Z</time>
      </trkpt>
      <trkpt lat="44.61323" lon="2.51044">
        <ele>399</ele>
        <time>2026-08-14T03:29:57Z</time>
      </trkpt>
    </trkseg>
  </trk>
</gpx>